createdAt,value
2019-05-19T00:00:06.327Z,46.41
2019-05-19T00:01:06.495Z,42.70
2019-05-19T00:02:06.640Z,43.67
2019-05-19T00:03:06.844Z,40.12
2019-05-19T00:04:07.010Z,40.61
2019-05-19T00:05:07.191Z,42.06
2019-05-19T00:06:07.331Z,43.34
2019-05-19T00:07:07.500Z,41.73
2019-05-19T00:08:07.686Z,45.76
2019-05-19T00:09:07.886Z,45.92
2019-05-19T00:10:08.080Z,43.02
2019-05-19T00:11:08.262Z,43.67
2019-05-19T00:12:08.471Z,41.09
2019-05-19T00:13:08.666Z,43.02
2019-05-19T00:14:08.877Z,44.79
2019-05-19T00:15:09.065Z,40.28
2019-05-19T00:16:09.246Z,39.64
2019-05-19T00:17:09.401Z,45.60
2019-05-19T00:18:10.595Z,39.64
2019-05-19T00:19:09.738Z,46.25
2019-05-19T00:20:09.948Z,40.12
2019-05-19T00:21:10.159Z,44.96
2019-05-19T00:22:10.381Z,51.88
2019-05-19T00:23:10.619Z,51.08
2019-05-19T00:24:10.838Z,46.57
2019-05-19T00:25:11.045Z,43.51
2019-05-19T00:26:11.239Z,40.12
2019-05-19T00:27:11.436Z,42.54
2019-05-19T00:28:11.659Z,40.61
2019-05-19T00:29:11.874Z,45.12
2019-05-19T00:30:12.112Z,44.47
2019-05-19T00:31:12.310Z,48.82
2019-05-19T00:32:12.508Z,42.70
2019-05-19T00:33:12.699Z,40.93
2019-05-19T00:34:12.920Z,47.21
2019-05-19T00:35:13.100Z,44.15
2019-05-19T00:36:13.288Z,41.09
2019-05-19T00:37:13.472Z,42.86
2019-05-19T00:38:13.700Z,41.73
2019-05-19T00:39:13.939Z,41.25
2019-05-19T00:40:14.083Z,43.99
2019-05-19T00:41:14.283Z,41.89
2019-05-19T00:42:14.456Z,44.15
2019-05-19T00:43:14.631Z,46.41
2019-05-19T00:44:14.837Z,41.89
2019-05-19T00:45:14.984Z,45.12
2019-05-19T00:46:15.143Z,41.89
2019-05-19T00:47:15.290Z,44.31
2019-05-19T00:48:15.417Z,47.86
2019-05-19T00:49:15.580Z,45.12
2019-05-19T00:50:15.741Z,44.31
2019-05-19T00:51:15.885Z,46.25
2019-05-19T00:52:16.013Z,41.41
2019-05-19T00:53:16.164Z,46.57
2019-05-19T00:54:16.373Z,40.93
2019-05-19T00:55:16.530Z,41.09
2019-05-19T00:56:16.695Z,47.37
2019-05-19T00:57:16.849Z,41.57
2019-05-19T00:58:17.034Z,41.89
2019-05-19T00:59:17.186Z,40.28
2019-05-19T01:00:17.344Z,41.57
2019-05-19T01:01:17.489Z,40.93
2019-05-19T01:02:17.684Z,41.73
2019-05-19T01:03:17.848Z,41.73
2019-05-19T01:04:18.028Z,39.96
2019-05-19T01:05:20.693Z,73.64
2019-05-19T01:06:18.406Z,44.96
2019-05-19T01:07:18.591Z,52.37
2019-05-19T01:08:18.750Z,40.28
2019-05-19T01:09:18.913Z,42.70
2019-05-19T01:10:19.066Z,41.41
2019-05-19T01:11:19.244Z,40.93
2019-05-19T01:12:19.418Z,42.54
2019-05-19T01:13:19.578Z,44.47
2019-05-19T01:14:19.736Z,43.18
2019-05-19T01:15:19.902Z,39.96
2019-05-19T01:16:20.032Z,62.20
2019-05-19T01:17:20.229Z,40.28
2019-05-19T01:18:20.367Z,44.96
2019-05-19T01:19:20.538Z,41.25
2019-05-19T01:20:20.710Z,41.73
2019-05-19T01:21:20.834Z,39.64
2019-05-19T01:22:20.994Z,72.51
2019-05-19T01:23:21.143Z,73.80
2019-05-19T01:24:21.281Z,41.09
2019-05-19T01:25:21.461Z,42.86
2019-05-19T01:26:21.642Z,39.96
2019-05-19T01:27:21.781Z,43.02
2019-05-19T01:28:21.932Z,45.60
2019-05-19T01:29:22.089Z,40.61
2019-05-19T01:30:22.240Z,42.54
2019-05-19T01:31:22.407Z,46.25
2019-05-19T01:32:22.611Z,44.15
2019-05-19T01:33:22.835Z,39.64
2019-05-19T01:34:22.998Z,43.99
2019-05-19T01:35:23.169Z,39.80
2019-05-19T01:36:23.338Z,41.57
2019-05-19T01:37:23.532Z,44.31
2019-05-19T01:38:23.740Z,44.31
2019-05-19T01:39:23.931Z,39.96
2019-05-19T01:40:24.115Z,48.82
2019-05-19T01:41:24.261Z,40.93
2019-05-19T01:42:24.474Z,42.70
2019-05-19T01:43:24.652Z,46.57
2019-05-19T01:44:24.808Z,42.70
2019-05-19T01:45:24.949Z,41.09
2019-05-19T01:46:25.119Z,41.41
2019-05-19T01:47:25.342Z,44.47
2019-05-19T01:48:27.978Z,42.38
2019-05-19T01:49:25.657Z,44.15
2019-05-19T01:50:25.819Z,46.08
2019-05-19T01:51:25.969Z,41.25
2019-05-19T01:52:26.192Z,40.77
2019-05-19T01:53:26.360Z,41.41
2019-05-19T01:54:26.552Z,40.28
2019-05-19T01:55:26.700Z,42.86
2019-05-19T01:56:26.845Z,40.44
2019-05-19T01:57:27.011Z,39.80
2019-05-19T01:58:27.191Z,47.05
2019-05-19T01:59:27.350Z,49.47
2019-05-19T02:00:27.522Z,41.25
2019-05-19T02:01:27.689Z,40.12
2019-05-19T02:02:27.838Z,42.86
2019-05-19T02:03:28.005Z,40.93
2019-05-19T02:04:28.166Z,40.93
2019-05-19T02:05:28.328Z,53.50
2019-05-19T02:06:28.458Z,50.92
2019-05-19T02:07:28.625Z,41.25
2019-05-19T02:08:28.823Z,40.61
2019-05-19T02:09:28.968Z,42.54
2019-05-19T02:10:29.110Z,41.73
2019-05-19T02:11:29.261Z,41.57
2019-05-19T02:12:29.425Z,41.89
2019-05-19T02:13:29.586Z,41.25
2019-05-19T02:14:29.744Z,45.92
2019-05-19T02:15:29.887Z,43.51
2019-05-19T02:16:30.061Z,40.61
2019-05-19T02:17:30.198Z,39.64
2019-05-19T02:18:30.361Z,43.99
2019-05-19T02:19:30.509Z,48.34
2019-05-19T02:20:33.730Z,42.86
2019-05-19T02:21:31.789Z,73.48
2019-05-19T02:22:30.919Z,41.09
2019-05-19T02:23:31.099Z,47.21
2019-05-19T02:24:31.282Z,72.35
2019-05-19T02:25:31.418Z,48.34
2019-05-19T02:26:31.542Z,51.08
2019-05-19T02:27:31.706Z,53.01
2019-05-19T02:28:31.848Z,50.92
2019-05-19T02:29:32.017Z,52.21
2019-05-19T02:30:32.203Z,51.72
2019-05-19T02:31:32.369Z,56.72
2019-05-19T02:32:32.507Z,56.88
2019-05-19T02:33:35.713Z,58.01
2019-05-19T02:34:33.865Z,64.45
2019-05-19T02:35:32.969Z,64.29
2019-05-19T02:36:33.102Z,63.00
2019-05-19T02:37:33.286Z,63.81
2019-05-19T02:38:33.430Z,63.33
2019-05-19T02:39:33.596Z,56.40
2019-05-19T02:40:33.763Z,56.56
2019-05-19T02:41:33.918Z,60.75
2019-05-19T02:42:34.114Z,63.81
2019-05-19T02:43:34.283Z,65.26
2019-05-19T02:44:34.454Z,65.10
2019-05-19T02:45:34.600Z,65.42
2019-05-19T02:46:34.793Z,66.39
2019-05-19T02:47:34.943Z,64.61
2019-05-19T02:48:35.167Z,64.29
2019-05-19T02:49:35.311Z,66.39
2019-05-19T02:50:50.945Z,72.67
2019-05-19T02:51:37.736Z,71.54
2019-05-19T02:52:35.949Z,65.74
2019-05-19T02:53:36.103Z,58.49
2019-05-19T02:54:36.262Z,59.30
2019-05-19T02:55:36.457Z,61.87
2019-05-19T02:56:36.644Z,59.78
2019-05-19T02:57:36.825Z,70.74
2019-05-19T02:58:36.985Z,66.06
2019-05-19T02:59:37.171Z,56.56
2019-05-19T03:00:37.365Z,53.82
2019-05-19T03:01:37.573Z,53.17
2019-05-19T03:02:37.732Z,56.72
2019-05-19T03:03:37.901Z,62.84
2019-05-19T03:04:38.079Z,59.94
2019-05-19T03:05:38.278Z,72.99
2019-05-19T03:06:38.467Z,67.84
2019-05-19T03:07:38.633Z,67.03
2019-05-19T03:08:38.839Z,52.05
2019-05-19T03:09:39.006Z,53.50
2019-05-19T03:10:39.174Z,64.61
2019-05-19T03:11:39.371Z,55.91
2019-05-19T03:12:39.528Z,61.07
2019-05-19T03:13:39.689Z,58.97
2019-05-19T03:14:39.899Z,55.75
2019-05-19T03:15:40.073Z,67.84
2019-05-19T03:16:40.280Z,57.85
2019-05-19T03:17:40.460Z,70.90
2019-05-19T03:18:40.613Z,51.40
2019-05-19T03:19:40.788Z,52.85
2019-05-19T03:20:40.933Z,49.63
2019-05-19T03:21:41.102Z,58.33
2019-05-19T03:22:41.293Z,49.31
2019-05-19T03:23:41.482Z,56.88
2019-05-19T03:24:41.613Z,49.79
2019-05-19T03:25:44.263Z,53.66
2019-05-19T03:26:43.017Z,55.43
2019-05-19T03:27:42.166Z,55.59
2019-05-19T03:28:42.352Z,66.71
2019-05-19T03:29:42.502Z,73.80
2019-05-19T03:30:42.676Z,61.87
2019-05-19T03:31:42.844Z,59.14
2019-05-19T03:32:43.040Z,51.56
2019-05-19T03:33:43.223Z,53.66
2019-05-19T03:34:43.433Z,69.93
2019-05-19T03:35:43.591Z,49.63
2019-05-19T03:36:43.763Z,49.31
2019-05-19T03:37:43.963Z,54.46
2019-05-19T03:38:44.131Z,58.65
2019-05-19T03:39:44.298Z,72.19
2019-05-19T03:40:44.486Z,60.10
2019-05-19T03:41:44.643Z,52.85
2019-05-19T03:42:44.817Z,50.11
2019-05-19T03:43:44.986Z,52.21
2019-05-19T03:44:45.182Z,61.71
2019-05-19T03:45:45.342Z,50.43
2019-05-19T03:46:45.513Z,50.92
2019-05-19T03:47:45.686Z,58.65
2019-05-19T03:48:45.868Z,46.73
2019-05-19T03:49:46.030Z,51.40
2019-05-19T03:50:46.203Z,47.86
2019-05-19T03:51:46.383Z,56.24
2019-05-19T03:52:46.572Z,61.71
2019-05-19T03:53:46.795Z,56.72
2019-05-19T03:54:46.977Z,56.72
2019-05-19T03:55:47.148Z,50.76
2019-05-19T03:56:47.299Z,51.24
2019-05-19T03:57:48.468Z,57.52
2019-05-19T03:58:47.621Z,69.61
2019-05-19T03:59:47.797Z,53.98
2019-05-19T04:00:47.960Z,53.33
2019-05-19T04:01:48.122Z,56.72
2019-05-19T04:02:48.267Z,54.46
2019-05-19T04:03:48.466Z,56.24
2019-05-19T04:04:48.642Z,64.45
2019-05-19T04:05:48.823Z,67.19
2019-05-19T04:06:49.009Z,54.46
2019-05-19T04:07:49.191Z,56.24
2019-05-19T04:08:49.403Z,53.98
2019-05-19T04:09:49.586Z,71.54
2019-05-19T04:10:49.734Z,53.66
2019-05-19T04:11:49.935Z,55.43
2019-05-19T04:12:50.127Z,51.88
2019-05-19T04:13:50.301Z,69.29
2019-05-19T04:14:50.514Z,62.20
2019-05-19T04:15:50.713Z,61.87
2019-05-19T04:16:50.889Z,60.10
2019-05-19T04:17:51.049Z,52.85
2019-05-19T04:18:51.215Z,60.26
2019-05-19T04:19:51.389Z,60.59
2019-05-19T04:20:51.531Z,50.60
2019-05-19T04:21:51.731Z,49.95
2019-05-19T04:22:51.916Z,58.65
2019-05-19T04:23:52.086Z,76.38
2019-05-19T04:24:52.289Z,68.80
2019-05-19T04:25:52.472Z,53.66
2019-05-19T04:26:52.659Z,54.95
2019-05-19T04:27:52.846Z,72.19
2019-05-19T04:28:53.034Z,67.03
2019-05-19T04:29:53.187Z,69.61
2019-05-19T04:30:53.355Z,53.17
2019-05-19T04:31:53.507Z,51.24
2019-05-19T04:32:54.671Z,47.05
2019-05-19T04:33:53.811Z,55.11
2019-05-19T04:34:53.975Z,54.62
2019-05-19T04:35:57.388Z,63.33
2019-05-19T04:36:55.394Z,50.11
2019-05-19T04:37:54.530Z,51.08
2019-05-19T04:38:54.697Z,51.72
2019-05-19T04:39:54.863Z,73.96
2019-05-19T04:40:55.067Z,61.71
2019-05-19T04:41:55.228Z,57.69
2019-05-19T04:42:55.416Z,87.66
2019-05-19T04:43:55.561Z,58.33
2019-05-19T04:44:55.749Z,54.46
2019-05-19T04:45:55.954Z,57.04
2019-05-19T04:46:56.070Z,50.11
2019-05-19T04:47:56.333Z,50.76
2019-05-19T04:48:56.369Z,64.61
2019-05-19T04:49:56.533Z,58.81
2019-05-19T04:50:56.696Z,73.64
2019-05-19T04:52:06.749Z,79.60
2019-05-19T04:52:59.069Z,53.98
2019-05-19T04:53:57.284Z,47.70
2019-05-19T04:54:57.455Z,54.79
2019-05-19T04:55:57.631Z,53.17
2019-05-19T04:56:57.820Z,69.61
2019-05-19T04:57:57.962Z,52.53
2019-05-19T04:58:58.148Z,51.24
2019-05-19T04:59:58.269Z,52.53
2019-05-19T05:00:58.408Z,56.07
2019-05-19T05:01:58.587Z,49.15
2019-05-19T05:02:58.750Z,44.47
2019-05-19T05:03:58.925Z,59.30
2019-05-19T05:04:59.072Z,59.78
2019-05-19T05:05:59.222Z,57.36
2019-05-19T05:06:59.407Z,49.63
2019-05-19T05:07:59.560Z,52.53
2019-05-19T05:08:59.736Z,50.27
2019-05-19T05:09:59.891Z,50.60
2019-05-19T05:11:00.026Z,53.82
2019-05-19T05:12:00.212Z,63.16
2019-05-19T05:13:00.477Z,64.78
2019-05-19T05:14:00.509Z,66.55
2019-05-19T05:15:00.670Z,52.05
2019-05-19T05:16:00.824Z,50.92
2019-05-19T05:17:00.981Z,51.88
2019-05-19T05:18:01.256Z,49.63
2019-05-19T05:19:01.330Z,62.68
2019-05-19T05:20:01.518Z,49.31
2019-05-19T05:21:02.662Z,49.63
2019-05-19T05:22:02.919Z,48.50
2019-05-19T05:23:02.065Z,55.75
2019-05-19T05:24:02.209Z,71.06
2019-05-19T05:25:02.354Z,47.86
2019-05-19T05:26:02.513Z,59.14
2019-05-19T05:27:02.730Z,57.20
2019-05-19T05:28:02.894Z,57.85
2019-05-19T05:29:03.080Z,52.53
2019-05-19T05:30:03.252Z,68.48
2019-05-19T05:31:03.388Z,50.27
2019-05-19T05:32:03.525Z,51.40
2019-05-19T05:33:03.688Z,53.17
2019-05-19T05:34:03.865Z,48.66
2019-05-19T05:35:04.023Z,55.59
2019-05-19T05:36:04.219Z,70.90
2019-05-19T05:37:04.404Z,60.26
2019-05-19T05:38:04.549Z,50.27
2019-05-19T05:39:04.737Z,74.44
2019-05-19T05:40:04.924Z,59.62
2019-05-19T05:41:05.084Z,55.43
2019-05-19T05:42:05.245Z,58.65
2019-05-19T05:43:05.410Z,62.84
2019-05-19T05:44:05.613Z,64.29
2019-05-19T05:45:05.784Z,74.93
2019-05-19T05:46:05.923Z,69.13
2019-05-19T05:47:06.061Z,58.49
2019-05-19T05:48:06.228Z,62.52
2019-05-19T05:49:06.409Z,71.06
2019-05-19T05:50:06.567Z,64.78
2019-05-19T05:51:06.747Z,66.06
2019-05-19T05:52:06.921Z,57.04
2019-05-19T05:53:07.096Z,56.40
2019-05-19T05:54:07.288Z,76.38
2019-05-19T05:55:07.435Z,67.35
2019-05-19T05:56:07.615Z,82.66
2019-05-19T05:57:07.840Z,71.06
2019-05-19T05:58:08.039Z,72.51
2019-05-19T05:59:08.245Z,61.71
2019-05-19T06:00:08.450Z,56.40
2019-05-19T06:01:08.600Z,74.28
2019-05-19T06:02:09.760Z,55.59
2019-05-19T06:03:08.918Z,65.90
2019-05-19T06:04:09.061Z,59.30
2019-05-19T06:05:09.290Z,54.62
2019-05-19T06:06:09.463Z,49.63
2019-05-19T06:07:09.621Z,52.53
2019-05-19T06:08:09.768Z,53.01
2019-05-19T06:09:09.950Z,53.98
2019-05-19T06:10:10.168Z,70.09
2019-05-19T06:11:10.352Z,63.16
2019-05-19T06:12:10.530Z,68.48
2019-05-19T06:13:10.760Z,59.14
2019-05-19T06:14:10.952Z,49.63
2019-05-19T06:15:11.160Z,59.62
2019-05-19T06:16:11.350Z,53.01
2019-05-19T06:17:11.534Z,48.34
2019-05-19T06:18:11.743Z,48.02
2019-05-19T06:19:11.949Z,47.53
2019-05-19T06:20:12.166Z,54.62
2019-05-19T06:21:12.345Z,54.30
2019-05-19T06:22:12.559Z,71.06
2019-05-19T06:23:12.730Z,53.66
2019-05-19T06:24:13.946Z,49.31
2019-05-19T06:25:13.146Z,63.33
2019-05-19T06:26:13.326Z,64.29
2019-05-19T06:27:14.521Z,63.81
2019-05-19T06:28:13.652Z,63.33
2019-05-19T06:29:13.847Z,64.94
2019-05-19T06:30:13.999Z,60.26
2019-05-19T06:31:14.201Z,60.91
2019-05-19T06:32:14.386Z,63.81
2019-05-19T06:33:14.583Z,69.13
2019-05-19T06:34:14.741Z,66.39
2019-05-19T06:35:14.919Z,69.93
2019-05-19T06:36:15.117Z,64.94
2019-05-19T06:37:15.323Z,65.26
2019-05-19T06:38:15.511Z,68.64
2019-05-19T06:39:15.689Z,70.42
2019-05-19T06:40:15.861Z,65.10
2019-05-19T06:41:16.095Z,65.10
2019-05-19T06:42:16.303Z,64.13
2019-05-19T06:43:16.483Z,64.78
2019-05-19T06:44:16.697Z,64.13
2019-05-19T06:45:16.886Z,63.16
2019-05-19T06:46:17.066Z,62.52
2019-05-19T06:47:17.268Z,67.19
2019-05-19T06:48:17.458Z,72.67
2019-05-19T06:49:17.708Z,61.39
2019-05-19T06:50:17.908Z,70.74
2019-05-19T06:51:18.126Z,69.45
2019-05-19T06:52:18.368Z,74.77
2019-05-19T06:53:18.452Z,58.81
2019-05-19T06:54:18.630Z,48.18
2019-05-19T06:55:18.829Z,69.61
2019-05-19T06:56:19.056Z,71.38
2019-05-19T06:57:19.272Z,67.51
2019-05-19T06:58:19.381Z,53.50
2019-05-19T06:59:19.494Z,48.82
2019-05-19T07:00:19.705Z,60.75
2019-05-19T07:01:19.997Z,63.00
2019-05-19T07:02:20.147Z,69.29
2019-05-19T07:03:20.308Z,72.19
2019-05-19T07:04:20.482Z,76.86
2019-05-19T07:05:20.684Z,63.81
2019-05-19T07:06:20.871Z,67.03
2019-05-19T07:07:21.065Z,73.48
2019-05-19T07:08:21.273Z,69.45
2019-05-19T07:09:21.477Z,66.55
2019-05-19T07:10:21.674Z,67.68
2019-05-19T07:11:21.857Z,74.77
2019-05-19T07:12:22.044Z,72.35
2019-05-19T07:13:22.236Z,63.49
2019-05-19T07:14:22.395Z,58.17
2019-05-19T07:15:22.597Z,54.30
2019-05-19T07:16:22.782Z,63.33
2019-05-19T07:17:22.992Z,71.54
2019-05-19T07:18:23.282Z,71.70
2019-05-19T07:19:23.369Z,54.46
2019-05-19T07:20:23.601Z,55.59
2019-05-19T07:21:23.813Z,68.64
2019-05-19T07:22:23.980Z,67.19
2019-05-19T07:23:28.180Z,68.00
2019-05-19T07:24:25.288Z,49.31
2019-05-19T07:25:24.466Z,71.22
2019-05-19T07:26:24.659Z,53.17
2019-05-19T07:27:24.898Z,48.02
2019-05-19T07:28:25.093Z,69.29
2019-05-19T07:29:25.319Z,58.49
2019-05-19T07:30:25.430Z,68.00
2019-05-19T07:31:25.639Z,55.43
2019-05-19T07:32:25.825Z,66.71
2019-05-19T07:33:26.016Z,62.84
2019-05-19T07:34:26.225Z,61.39
2019-05-19T07:35:26.414Z,61.87
2019-05-19T07:36:26.630Z,73.15
2019-05-19T07:37:26.815Z,51.88
2019-05-19T07:38:27.008Z,58.97
2019-05-19T07:39:27.231Z,56.72
2019-05-19T07:40:27.419Z,50.27
2019-05-19T07:41:27.588Z,54.79
2019-05-19T07:42:27.785Z,71.87
2019-05-19T07:43:27.956Z,54.30
2019-05-19T07:44:28.165Z,55.27
2019-05-19T07:45:28.332Z,71.87
2019-05-19T07:46:28.522Z,73.15
2019-05-19T07:47:28.682Z,65.74
2019-05-19T07:48:28.880Z,69.61
2019-05-19T07:49:29.086Z,59.62
2019-05-19T07:50:29.274Z,65.26
2019-05-19T07:51:29.470Z,71.70
2019-05-19T07:52:29.662Z,68.64
2019-05-19T07:53:42.229Z,70.25
2019-05-19T07:54:32.036Z,71.06
2019-05-19T07:55:30.186Z,59.30
2019-05-19T07:56:30.385Z,62.84
2019-05-19T07:57:30.604Z,53.98
2019-05-19T07:58:30.795Z,61.55
2019-05-19T07:59:30.962Z,62.84
2019-05-19T08:00:31.231Z,68.64
2019-05-19T08:01:31.403Z,61.23
2019-05-19T08:02:31.638Z,65.58
2019-05-19T08:03:31.855Z,73.96
2019-05-19T08:04:32.077Z,66.55
2019-05-19T08:05:32.253Z,54.30
2019-05-19T08:06:32.453Z,59.46
2019-05-19T08:07:32.652Z,72.19
2019-05-19T08:08:32.870Z,59.94
2019-05-19T08:09:32.971Z,60.26
2019-05-19T08:10:33.134Z,66.39
2019-05-19T08:11:33.316Z,65.90
2019-05-19T08:12:33.519Z,58.49
2019-05-19T08:13:33.698Z,62.36
2019-05-19T08:14:33.821Z,67.84
2019-05-19T08:15:33.991Z,69.29
2019-05-19T08:16:34.226Z,45.76
2019-05-19T08:17:34.391Z,59.94
2019-05-19T08:18:34.565Z,68.64
2019-05-19T08:19:34.711Z,66.23
2019-05-19T08:20:34.881Z,56.56
2019-05-19T08:21:35.094Z,62.68
2019-05-19T08:22:36.264Z,62.52
2019-05-19T08:23:35.432Z,69.45
2019-05-19T08:24:35.592Z,64.94
2019-05-19T08:25:35.894Z,61.87
2019-05-19T08:26:35.967Z,67.35
2019-05-19T08:27:36.202Z,54.30
2019-05-19T08:28:36.403Z,66.71
2019-05-19T08:29:36.607Z,74.28
2019-05-19T08:30:36.813Z,60.91
2019-05-19T08:31:37.011Z,70.58
2019-05-19T08:32:37.263Z,74.12
2019-05-19T08:33:37.458Z,66.71
2019-05-19T08:34:37.646Z,59.94
2019-05-19T08:35:37.853Z,58.65
2019-05-19T08:36:38.069Z,62.36
2019-05-19T08:37:38.257Z,54.79
2019-05-19T08:38:38.445Z,57.36
2019-05-19T08:39:38.642Z,70.25
2019-05-19T08:40:38.860Z,55.11
2019-05-19T08:41:39.037Z,74.28
2019-05-19T08:42:39.214Z,58.97
2019-05-19T08:43:39.425Z,67.35
2019-05-19T08:44:39.619Z,66.71
2019-05-19T08:45:39.822Z,71.38
2019-05-19T08:46:39.981Z,49.95
2019-05-19T08:47:40.160Z,54.30
2019-05-19T08:48:40.377Z,70.09
2019-05-19T08:49:40.564Z,66.55
2019-05-19T08:50:40.732Z,73.15
2019-05-19T08:51:40.899Z,62.68
2019-05-19T08:52:41.109Z,67.84
2019-05-19T08:53:41.335Z,65.42
2019-05-19T08:54:41.418Z,48.34
2019-05-19T08:55:41.625Z,70.09
2019-05-19T08:56:41.833Z,64.13
2019-05-19T08:57:42.085Z,58.17
2019-05-19T08:58:42.205Z,58.33
2019-05-19T08:59:42.450Z,64.61
2019-05-19T09:00:42.546Z,60.75
2019-05-19T09:01:42.769Z,63.00
2019-05-19T09:02:42.976Z,66.71
2019-05-19T09:03:43.198Z,86.21
2019-05-19T09:04:43.401Z,88.14
2019-05-19T09:05:43.567Z,86.53
2019-05-19T09:06:46.706Z,86.85
2019-05-19T09:07:43.964Z,84.27
2019-05-19T09:08:44.186Z,85.56
2019-05-19T09:09:44.368Z,86.37
2019-05-19T09:10:44.557Z,85.72
2019-05-19T09:11:47.847Z,83.63
2019-05-19T09:12:44.930Z,66.39
2019-05-19T09:13:45.160Z,68.96
2019-05-19T09:14:45.390Z,60.10
2019-05-19T09:15:45.549Z,53.33
2019-05-19T09:16:45.744Z,63.33
2019-05-19T09:17:45.932Z,61.55
2019-05-19T09:18:46.132Z,68.48
2019-05-19T09:19:46.365Z,50.60
2019-05-19T09:20:46.567Z,68.96
2019-05-19T09:21:46.762Z,72.99
2019-05-19T09:22:46.947Z,48.34
2019-05-19T09:23:47.235Z,70.58
2019-05-19T09:24:47.368Z,51.88
2019-05-19T09:25:47.520Z,66.71
2019-05-19T09:26:47.598Z,62.04
2019-05-19T09:27:47.797Z,65.10
2019-05-19T09:28:47.987Z,62.84
2019-05-19T09:29:48.229Z,55.27
2019-05-19T09:30:48.451Z,69.45
2019-05-19T09:31:48.633Z,57.69
2019-05-19T09:32:48.846Z,54.14
2019-05-19T09:33:49.031Z,59.94
2019-05-19T09:34:49.228Z,71.70
2019-05-19T09:35:49.405Z,75.25
2019-05-19T09:36:49.604Z,70.25
2019-05-19T09:37:49.787Z,69.77
2019-05-19T09:38:50.021Z,52.69
2019-05-19T09:39:50.264Z,69.93
2019-05-19T09:40:50.542Z,67.68
2019-05-19T09:41:50.599Z,62.84
2019-05-19T09:42:51.808Z,53.01
2019-05-19T09:43:50.975Z,69.77
2019-05-19T09:44:51.192Z,65.74
2019-05-19T09:45:51.315Z,72.99
2019-05-19T09:46:51.506Z,53.33
2019-05-19T09:47:51.705Z,75.57
2019-05-19T09:48:51.905Z,57.69
2019-05-19T09:49:52.095Z,68.48
2019-05-19T09:50:52.330Z,55.75
2019-05-19T09:51:52.578Z,69.93
2019-05-19T09:52:52.680Z,55.91
2019-05-19T09:53:52.856Z,62.68
2019-05-19T09:54:53.011Z,66.55
2019-05-19T09:55:53.189Z,62.36
2019-05-19T09:56:53.417Z,72.51
2019-05-19T09:57:53.587Z,63.65
2019-05-19T09:58:53.750Z,76.22
2019-05-19T09:59:53.896Z,72.51
2019-05-19T10:00:54.080Z,73.48
2019-05-19T10:01:54.218Z,82.34
2019-05-19T10:02:54.434Z,82.34
2019-05-19T10:03:54.603Z,81.05
2019-05-19T10:04:54.798Z,80.73
2019-05-19T10:05:54.998Z,81.69
2019-05-19T10:06:55.190Z,61.87
2019-05-19T10:07:55.391Z,65.90
2019-05-19T10:08:55.598Z,56.07
2019-05-19T10:09:55.782Z,71.54
2019-05-19T10:10:55.966Z,70.74
2019-05-19T10:11:56.156Z,59.62
2019-05-19T10:12:56.343Z,67.51
2019-05-19T10:13:56.565Z,68.32
2019-05-19T10:14:56.732Z,74.12
2019-05-19T10:15:56.907Z,56.56
2019-05-19T10:16:57.100Z,67.19
2019-05-19T10:17:57.294Z,67.68
2019-05-19T10:18:57.433Z,66.39
2019-05-19T10:19:57.583Z,70.25
2019-05-19T10:20:58.792Z,65.58
2019-05-19T10:21:57.925Z,67.03
2019-05-19T10:22:58.144Z,53.17
2019-05-19T10:23:58.324Z,70.25
2019-05-19T10:25:18.583Z,74.60
2019-05-19T10:26:00.629Z,72.35
2019-05-19T10:26:58.867Z,69.29
2019-05-19T10:27:59.058Z,68.64
2019-05-19T10:28:59.257Z,60.75
2019-05-19T10:29:59.451Z,60.26
2019-05-19T10:30:59.636Z,65.58
2019-05-19T10:31:59.812Z,74.12
2019-05-19T10:33:00.004Z,66.55
2019-05-19T10:34:00.171Z,51.88
2019-05-19T10:35:00.384Z,67.51
2019-05-19T10:36:00.597Z,70.74
2019-05-19T10:37:00.800Z,64.61
2019-05-19T10:38:01.053Z,56.07
2019-05-19T10:39:01.232Z,55.59
2019-05-19T10:40:01.527Z,59.14
2019-05-19T10:41:01.636Z,64.61
2019-05-19T10:42:02.286Z,68.48
2019-05-19T10:43:02.142Z,68.32
2019-05-19T10:44:02.265Z,67.35
2019-05-19T10:45:02.342Z,68.00
2019-05-19T10:46:02.540Z,56.40
2019-05-19T10:47:03.116Z,67.68
2019-05-19T10:48:02.920Z,63.49
2019-05-19T10:49:03.122Z,66.39
2019-05-19T10:50:04.287Z,43.83
2019-05-19T10:51:03.431Z,55.91
2019-05-19T10:52:03.648Z,68.48
2019-05-19T10:53:03.834Z,68.32
2019-05-19T10:54:04.019Z,68.96
2019-05-19T10:55:04.224Z,67.35
2019-05-19T10:56:04.449Z,61.23
2019-05-19T10:57:04.527Z,69.93
2019-05-19T10:58:04.722Z,68.00
2019-05-19T10:59:04.976Z,69.61
2019-05-19T11:00:05.045Z,74.93
2019-05-19T11:01:05.265Z,63.16
2019-05-19T11:02:05.453Z,62.52
2019-05-19T11:03:05.645Z,63.81
2019-05-19T11:04:05.872Z,66.71
2019-05-19T11:05:06.026Z,71.54
2019-05-19T11:06:06.195Z,73.32
2019-05-19T11:07:06.414Z,60.75
2019-05-19T11:08:06.617Z,69.93
2019-05-19T11:09:06.838Z,64.45
2019-05-19T11:10:07.027Z,66.55
2019-05-19T11:11:07.226Z,75.41
2019-05-19T11:12:07.442Z,66.71
2019-05-19T11:13:07.624Z,60.42
2019-05-19T11:14:07.854Z,44.15
2019-05-19T11:15:08.011Z,71.22
2019-05-19T11:16:08.233Z,65.26
2019-05-19T11:17:08.395Z,58.65
2019-05-19T11:18:08.539Z,68.64
2019-05-19T11:19:08.758Z,66.71
2019-05-19T11:20:08.895Z,51.24
2019-05-19T11:21:09.116Z,67.68
2019-05-19T11:22:09.266Z,66.87
2019-05-19T11:23:09.425Z,69.13
2019-05-19T11:24:09.570Z,64.29
2019-05-19T11:25:09.733Z,56.24
2019-05-19T11:26:09.949Z,64.61
2019-05-19T11:27:10.251Z,66.06
2019-05-19T11:28:11.297Z,47.53
2019-05-19T11:29:10.448Z,69.61
2019-05-19T11:30:10.654Z,63.00
2019-05-19T11:31:10.889Z,56.56
2019-05-19T11:32:10.974Z,73.80
2019-05-19T11:33:11.270Z,66.39
2019-05-19T11:34:11.335Z,65.74
2019-05-19T11:35:11.507Z,56.72
2019-05-19T11:36:11.726Z,70.42
2019-05-19T11:37:11.891Z,61.87
2019-05-19T11:38:12.086Z,63.49
2019-05-19T11:39:12.249Z,59.78
2019-05-19T11:40:12.946Z,69.77
2019-05-19T11:41:12.636Z,67.35
2019-05-19T11:42:12.862Z,71.22
2019-05-19T11:43:13.035Z,61.39
2019-05-19T11:44:13.224Z,70.74
2019-05-19T11:45:13.372Z,69.29
2019-05-19T11:46:13.531Z,61.23
2019-05-19T11:47:14.003Z,65.10
2019-05-19T11:48:13.896Z,61.07
2019-05-19T11:49:14.060Z,70.25
2019-05-19T11:50:14.229Z,71.06
2019-05-19T11:51:14.432Z,61.55
2019-05-19T11:52:14.628Z,61.23
2019-05-19T11:53:16.467Z,65.42
2019-05-19T11:54:14.978Z,61.55
2019-05-19T11:55:15.163Z,65.90
2019-05-19T11:56:15.424Z,68.80
2019-05-19T11:57:15.528Z,69.61
2019-05-19T11:58:15.738Z,67.84
2019-05-19T11:59:15.916Z,68.16
2019-05-19T12:00:16.086Z,67.03
2019-05-19T12:01:16.246Z,69.45
2019-05-19T12:02:16.415Z,58.65
2019-05-19T12:03:16.659Z,73.48
2019-05-19T12:04:16.831Z,62.84
2019-05-19T12:05:17.007Z,59.30
2019-05-19T12:06:17.218Z,70.58
2019-05-19T12:07:17.411Z,63.33
2019-05-19T12:08:17.606Z,64.78
2019-05-19T12:09:18.804Z,70.74
2019-05-19T12:10:17.981Z,60.59
2019-05-19T12:11:18.177Z,71.22
2019-05-19T12:12:18.399Z,66.23
2019-05-19T12:13:18.677Z,73.96
2019-05-19T12:14:18.773Z,65.26
2019-05-19T12:15:18.960Z,68.64
2019-05-19T12:16:19.200Z,63.00
2019-05-19T12:17:19.381Z,69.29
2019-05-19T12:18:19.593Z,71.54
2019-05-19T12:19:19.809Z,72.51
2019-05-19T12:20:20.022Z,58.97
2019-05-19T12:21:20.198Z,64.13
2019-05-19T12:22:20.339Z,68.16
2019-05-19T12:23:20.536Z,72.83
2019-05-19T12:24:20.754Z,68.32
2019-05-19T12:25:20.969Z,72.51
2019-05-19T12:26:23.641Z,62.52
2019-05-19T12:27:22.356Z,59.46
2019-05-19T12:28:21.495Z,61.07
2019-05-19T12:29:21.690Z,68.80
2019-05-19T12:30:21.917Z,69.13
2019-05-19T12:31:22.106Z,61.55
2019-05-19T12:32:22.292Z,70.25
2019-05-19T12:33:22.523Z,71.22
2019-05-19T12:34:22.687Z,65.10
2019-05-19T12:35:22.885Z,71.54
2019-05-19T12:36:23.089Z,71.22
2019-05-19T12:37:23.242Z,61.39
2019-05-19T12:38:23.458Z,64.78
2019-05-19T12:39:23.652Z,71.22
2019-05-19T12:40:23.826Z,62.68
2019-05-19T12:41:24.023Z,77.83
2019-05-19T12:42:24.206Z,73.64
2019-05-19T12:43:24.377Z,76.38
2019-05-19T12:44:24.566Z,62.84
2019-05-19T12:45:24.747Z,67.51
2019-05-19T12:46:24.999Z,69.61
2019-05-19T12:47:25.208Z,64.94
2019-05-19T12:48:26.070Z,66.06
2019-05-19T12:49:25.593Z,60.42
2019-05-19T12:50:25.781Z,67.68
2019-05-19T12:51:26.854Z,53.50
2019-05-19T12:52:27.383Z,68.16
2019-05-19T12:53:26.432Z,69.45
2019-05-19T12:54:26.617Z,67.51